sensor_id;sensor_type;location;lat;lon;timestamp;P1;durP1;ratioP1;P2;durP2;ratioP2
58472;SDS011;44775;51.564;5.460;2023-08-08T00:01:15;9.27;;;4.20;;
58472;SDS011;44775;51.564;5.460;2023-08-08T00:03:40;9.68;;;4.38;;
58472;SDS011;44775;51.564;5.460;2023-08-08T00:06:06;6.55;;;4.55;;
58472;SDS011;44775;51.564;5.460;2023-08-08T00:08:31;10.07;;;4.50;;
58472;SDS011;44775;51.564;5.460;2023-08-08T00:10:56;6.30;;;4.70;;
58472;SDS011;44775;51.564;5.460;2023-08-08T00:13:22;6.90;;;4.07;;
58472;SDS011;44775;51.564;5.460;2023-08-08T00:15:47;6.60;;;3.85;;
58472;SDS011;44775;51.564;5.460;2023-08-08T00:18:13;5.68;;;4.45;;
58472;SDS011;44775;51.564;5.460;2023-08-08T00:20:39;7.82;;;4.28;;
58472;SDS011;44775;51.564;5.460;2023-08-08T00:23:04;8.10;;;4.43;;
58472;SDS011;44775;51.564;5.460;2023-08-08T00:25:29;9.70;;;4.40;;
58472;SDS011;44775;51.564;5.460;2023-08-08T00:27:55;8.40;;;4.22;;
58472;SDS011;44775;51.564;5.460;2023-08-08T00:30:20;6.85;;;4.43;;
58472;SDS011;44775;51.564;5.460;2023-08-08T00:32:45;9.98;;;4.60;;
58472;SDS011;44775;51.564;5.460;2023-08-08T00:35:11;5.40;;;3.67;;
58472;SDS011;44775;51.564;5.460;2023-08-08T00:37:36;7.93;;;4.20;;
58472;SDS011;44775;51.564;5.460;2023-08-08T00:40:01;7.13;;;4.32;;
58472;SDS011;44775;51.564;5.460;2023-08-08T00:42:27;6.68;;;4.20;;
58472;SDS011;44775;51.564;5.460;2023-08-08T00:44:52;8.30;;;4.22;;
58472;SDS011;44775;51.564;5.460;2023-08-08T00:47:18;5.28;;;4.10;;
58472;SDS011;44775;51.564;5.460;2023-08-08T00:49:43;7.80;;;3.97;;
58472;SDS011;44775;51.564;5.460;2023-08-08T00:52:11;9.75;;;4.22;;
58472;SDS011;44775;51.564;5.460;2023-08-08T00:54:37;6.50;;;4.28;;
58472;SDS011;44775;51.564;5.460;2023-08-08T00:57:02;6.43;;;3.80;;
58472;SDS011;44775;51.564;5.460;2023-08-08T00:59:28;5.88;;;4.20;;
58472;SDS011;44775;51.564;5.460;2023-08-08T01:01:54;12.00;;;4.25;;
58472;SDS011;44775;51.564;5.460;2023-08-08T01:04:19;11.02;;;4.32;;
58472;SDS011;44775;51.564;5.460;2023-08-08T01:06:51;7.97;;;4.15;;
58472;SDS011;44775;51.564;5.460;2023-08-08T01:09:54;7.95;;;4.47;;
58472;SDS011;44775;51.564;5.460;2023-08-08T01:14:48;9.00;;;4.40;;
58472;SDS011;44775;51.564;5.460;2023-08-08T01:17:14;6.72;;;4.10;;
58472;SDS011;44775;51.564;5.460;2023-08-08T01:19:40;10.95;;;4.50;;
58472;SDS011;44775;51.564;5.460;2023-08-08T01:22:08;7.25;;;4.15;;
58472;SDS011;44775;51.564;5.460;2023-08-08T01:24:47;10.80;;;4.65;;
58472;SDS011;44775;51.564;5.460;2023-08-08T01:27:13;9.32;;;4.82;;
58472;SDS011;44775;51.564;5.460;2023-08-08T01:29:39;9.05;;;4.72;;
58472;SDS011;44775;51.564;5.460;2023-08-08T01:32:06;7.22;;;4.50;;
58472;SDS011;44775;51.564;5.460;2023-08-08T01:34:33;6.88;;;4.45;;
58472;SDS011;44775;51.564;5.460;2023-08-08T01:37:19;10.75;;;4.70;;
58472;SDS011;44775;51.564;5.460;2023-08-08T01:39:50;9.57;;;4.70;;
58472;SDS011;44775;51.564;5.460;2023-08-08T01:42:16;10.35;;;4.90;;
58472;SDS011;44775;51.564;5.460;2023-08-08T01:44:44;8.80;;;4.63;;
58472;SDS011;44775;51.564;5.460;2023-08-08T01:47:10;10.52;;;4.88;;
58472;SDS011;44775;51.564;5.460;2023-08-08T01:49:36;11.73;;;5.10;;
58472;SDS011;44775;51.564;5.460;2023-08-08T01:52:01;10.18;;;5.25;;
58472;SDS011;44775;51.564;5.460;2023-08-08T01:54:26;12.75;;;5.28;;
58472;SDS011;44775;51.564;5.460;2023-08-08T01:56:52;12.35;;;5.20;;
58472;SDS011;44775;51.564;5.460;2023-08-08T01:59:17;10.73;;;5.65;;
58472;SDS011;44775;51.564;5.460;2023-08-08T02:01:42;11.10;;;5.13;;
58472;SDS011;44775;51.564;5.460;2023-08-08T02:04:09;10.25;;;5.35;;
58472;SDS011;44775;51.564;5.460;2023-08-08T02:06:35;11.23;;;6.07;;
58472;SDS011;44775;51.564;5.460;2023-08-08T02:09:00;9.57;;;5.40;;
58472;SDS011;44775;51.564;5.460;2023-08-08T02:11:26;14.18;;;5.70;;
58472;SDS011;44775;51.564;5.460;2023-08-08T02:13:51;11.90;;;5.22;;
58472;SDS011;44775;51.564;5.460;2023-08-08T02:16:16;13.63;;;5.65;;
58472;SDS011;44775;51.564;5.460;2023-08-08T02:18:42;11.23;;;6.00;;
58472;SDS011;44775;51.564;5.460;2023-08-08T02:21:07;14.20;;;6.20;;
58472;SDS011;44775;51.564;5.460;2023-08-08T02:23:33;13.40;;;6.10;;
58472;SDS011;44775;51.564;5.460;2023-08-08T02:25:59;14.90;;;5.78;;
58472;SDS011;44775;51.564;5.460;2023-08-08T02:28:24;10.07;;;5.88;;
58472;SDS011;44775;51.564;5.460;2023-08-08T02:30:49;11.57;;;5.88;;
58472;SDS011;44775;51.564;5.460;2023-08-08T02:33:14;14.07;;;6.03;;
58472;SDS011;44775;51.564;5.460;2023-08-08T02:35:40;11.57;;;6.05;;
58472;SDS011;44775;51.564;5.460;2023-08-08T02:38:05;15.02;;;6.53;;
58472;SDS011;44775;51.564;5.460;2023-08-08T02:40:31;10.25;;;5.88;;
58472;SDS011;44775;51.564;5.460;2023-08-08T02:42:57;14.20;;;6.57;;
58472;SDS011;44775;51.564;5.460;2023-08-08T02:45:22;14.10;;;6.43;;
58472;SDS011;44775;51.564;5.460;2023-08-08T02:47:48;16.20;;;6.35;;
58472;SDS011;44775;51.564;5.460;2023-08-08T02:50:13;13.55;;;6.32;;
58472;SDS011;44775;51.564;5.460;2023-08-08T02:52:38;14.48;;;6.43;;
58472;SDS011;44775;51.564;5.460;2023-08-08T02:55:04;14.32;;;6.18;;
58472;SDS011;44775;51.564;5.460;2023-08-08T02:57:30;16.75;;;6.90;;
58472;SDS011;44775;51.564;5.460;2023-08-08T02:59:55;14.55;;;6.90;;
58472;SDS011;44775;51.564;5.460;2023-08-08T03:02:21;17.23;;;7.78;;
58472;SDS011;44775;51.564;5.460;2023-08-08T03:04:46;13.55;;;6.47;;
58472;SDS011;44775;51.564;5.460;2023-08-08T03:07:11;15.07;;;7.43;;
58472;SDS011;44775;51.564;5.460;2023-08-08T03:09:36;12.63;;;6.72;;
58472;SDS011;44775;51.564;5.460;2023-08-08T03:12:02;17.17;;;7.20;;
58472;SDS011;44775;51.564;5.460;2023-08-08T03:14:27;17.73;;;7.20;;
58472;SDS011;44775;51.564;5.460;2023-08-08T03:16:53;13.57;;;7.10;;
58472;SDS011;44775;51.564;5.460;2023-08-08T03:19:18;18.80;;;7.20;;
58472;SDS011;44775;51.564;5.460;2023-08-08T03:21:43;16.48;;;7.60;;
58472;SDS011;44775;51.564;5.460;2023-08-08T03:24:09;21.17;;;7.40;;
58472;SDS011;44775;51.564;5.460;2023-08-08T03:26:34;17.40;;;7.95;;
58472;SDS011;44775;51.564;5.460;2023-08-08T03:32:10;23.23;;;8.70;;
58472;SDS011;44775;51.564;5.460;2023-08-08T03:34:36;17.58;;;8.07;;
58472;SDS011;44775;51.564;5.460;2023-08-08T03:37:01;18.10;;;7.50;;
58472;SDS011;44775;51.564;5.460;2023-08-08T03:39:26;17.05;;;8.32;;
58472;SDS011;44775;51.564;5.460;2023-08-08T03:41:53;16.48;;;8.07;;
58472;SDS011;44775;51.564;5.460;2023-08-08T03:44:18;18.55;;;8.35;;
58472;SDS011;44775;51.564;5.460;2023-08-08T03:46:44;20.30;;;8.88;;
58472;SDS011;44775;51.564;5.460;2023-08-08T03:49:09;19.83;;;8.10;;
58472;SDS011;44775;51.564;5.460;2023-08-08T03:51:34;16.23;;;7.97;;
58472;SDS011;44775;51.564;5.460;2023-08-08T03:54:00;22.50;;;8.93;;
58472;SDS011;44775;51.564;5.460;2023-08-08T03:56:25;23.33;;;9.23;;
58472;SDS011;44775;51.564;5.460;2023-08-08T03:58:52;20.33;;;8.48;;
58472;SDS011;44775;51.564;5.460;2023-08-08T04:01:17;20.30;;;8.90;;
58472;SDS011;44775;51.564;5.460;2023-08-08T04:03:42;22.23;;;9.02;;
58472;SDS011;44775;51.564;5.460;2023-08-08T04:06:08;20.50;;;8.90;;
58472;SDS011;44775;51.564;5.460;2023-08-08T04:08:33;24.85;;;9.57;;
58472;SDS011;44775;51.564;5.460;2023-08-08T04:10:58;22.05;;;8.80;;
58472;SDS011;44775;51.564;5.460;2023-08-08T04:13:23;28.85;;;9.82;;
58472;SDS011;44775;51.564;5.460;2023-08-08T04:15:49;21.38;;;8.80;;
58472;SDS011;44775;51.564;5.460;2023-08-08T04:18:16;19.42;;;9.70;;
58472;SDS011;44775;51.564;5.460;2023-08-08T04:20:42;21.67;;;8.80;;
58472;SDS011;44775;51.564;5.460;2023-08-08T04:23:07;19.55;;;8.65;;
58472;SDS011;44775;51.564;5.460;2023-08-08T04:25:32;19.30;;;9.35;;
58472;SDS011;44775;51.564;5.460;2023-08-08T04:27:58;18.20;;;8.80;;
58472;SDS011;44775;51.564;5.460;2023-08-08T04:30:23;22.52;;;9.40;;
58472;SDS011;44775;51.564;5.460;2023-08-08T04:32:48;23.65;;;9.85;;
58472;SDS011;44775;51.564;5.460;2023-08-08T04:35:14;18.90;;;8.80;;
58472;SDS011;44775;51.564;5.460;2023-08-08T04:37:39;21.75;;;9.43;;
58472;SDS011;44775;51.564;5.460;2023-08-08T04:40:05;21.90;;;9.63;;
58472;SDS011;44775;51.564;5.460;2023-08-08T04:42:33;23.85;;;10.27;;
58472;SDS011;44775;51.564;5.460;2023-08-08T04:44:58;21.45;;;9.65;;
58472;SDS011;44775;51.564;5.460;2023-08-08T04:47:24;22.20;;;9.48;;
58472;SDS011;44775;51.564;5.460;2023-08-08T04:49:49;19.73;;;9.57;;
58472;SDS011;44775;51.564;5.460;2023-08-08T04:52:14;23.10;;;9.38;;
58472;SDS011;44775;51.564;5.460;2023-08-08T04:54:40;20.77;;;9.30;;
58472;SDS011;44775;51.564;5.460;2023-08-08T04:57:05;24.60;;;9.90;;
58472;SDS011;44775;51.564;5.460;2023-08-08T04:59:31;20.25;;;9.00;;
58472;SDS011;44775;51.564;5.460;2023-08-08T05:01:56;18.25;;;9.18;;
58472;SDS011;44775;51.564;5.460;2023-08-08T05:04:22;20.88;;;9.25;;
58472;SDS011;44775;51.564;5.460;2023-08-08T05:06:47;17.00;;;8.40;;
58472;SDS011;44775;51.564;5.460;2023-08-08T05:09:12;19.17;;;9.00;;
58472;SDS011;44775;51.564;5.460;2023-08-08T05:11:38;23.38;;;9.77;;
58472;SDS011;44775;51.564;5.460;2023-08-08T05:14:03;19.73;;;9.68;;
58472;SDS011;44775;51.564;5.460;2023-08-08T05:16:28;22.55;;;9.40;;
58472;SDS011;44775;51.564;5.460;2023-08-08T05:18:54;22.33;;;9.60;;
58472;SDS011;44775;51.564;5.460;2023-08-08T05:21:19;23.48;;;9.65;;
58472;SDS011;44775;51.564;5.460;2023-08-08T05:23:47;24.27;;;9.32;;
58472;SDS011;44775;51.564;5.460;2023-08-08T05:26:13;23.60;;;9.65;;
58472;SDS011;44775;51.564;5.460;2023-08-08T05:28:39;22.05;;;10.07;;
58472;SDS011;44775;51.564;5.460;2023-08-08T05:31:05;26.25;;;9.57;;
58472;SDS011;44775;51.564;5.460;2023-08-08T05:33:30;23.80;;;9.38;;
58472;SDS011;44775;51.564;5.460;2023-08-08T05:35:55;16.40;;;9.05;;
58472;SDS011;44775;51.564;5.460;2023-08-08T05:38:21;21.65;;;8.98;;
58472;SDS011;44775;51.564;5.460;2023-08-08T05:40:46;22.13;;;9.00;;
58472;SDS011;44775;51.564;5.460;2023-08-08T05:43:11;25.23;;;9.85;;
58472;SDS011;44775;51.564;5.460;2023-08-08T05:45:41;21.73;;;9.68;;
58472;SDS011;44775;51.564;5.460;2023-08-08T05:48:07;22.52;;;9.32;;
58472;SDS011;44775;51.564;5.460;2023-08-08T05:50:34;21.15;;;9.48;;
58472;SDS011;44775;51.564;5.460;2023-08-08T05:53:02;21.40;;;8.70;;
58472;SDS011;44775;51.564;5.460;2023-08-08T05:55:27;19.42;;;9.45;;
58472;SDS011;44775;51.564;5.460;2023-08-08T05:57:53;21.77;;;8.93;;
58472;SDS011;44775;51.564;5.460;2023-08-08T06:00:19;18.48;;;8.30;;
58472;SDS011;44775;51.564;5.460;2023-08-08T06:02:44;16.05;;;8.68;;
58472;SDS011;44775;51.564;5.460;2023-08-08T06:05:10;20.90;;;8.45;;
58472;SDS011;44775;51.564;5.460;2023-08-08T06:07:35;20.15;;;8.82;;
58472;SDS011;44775;51.564;5.460;2023-08-08T06:10:01;16.35;;;8.00;;
58472;SDS011;44775;51.564;5.460;2023-08-08T06:12:26;17.95;;;8.35;;
58472;SDS011;44775;51.564;5.460;2023-08-08T06:14:52;19.63;;;8.57;;
58472;SDS011;44775;51.564;5.460;2023-08-08T06:17:17;16.52;;;7.85;;
58472;SDS011;44775;51.564;5.460;2023-08-08T06:19:42;17.05;;;7.53;;
58472;SDS011;44775;51.564;5.460;2023-08-08T06:22:08;15.63;;;7.60;;
58472;SDS011;44775;51.564;5.460;2023-08-08T06:24:33;14.82;;;6.80;;
58472;SDS011;44775;51.564;5.460;2023-08-08T06:26:59;14.70;;;7.10;;
58472;SDS011;44775;51.564;5.460;2023-08-08T06:29:24;16.63;;;6.93;;
58472;SDS011;44775;51.564;5.460;2023-08-08T06:31:49;16.77;;;7.28;;
58472;SDS011;44775;51.564;5.460;2023-08-08T06:34:15;19.25;;;7.13;;
58472;SDS011;44775;51.564;5.460;2023-08-08T06:36:40;18.35;;;7.53;;
58472;SDS011;44775;51.564;5.460;2023-08-08T06:39:06;16.05;;;7.53;;
58472;SDS011;44775;51.564;5.460;2023-08-08T06:41:31;16.55;;;7.25;;
58472;SDS011;44775;51.564;5.460;2023-08-08T06:43:57;14.30;;;7.10;;
58472;SDS011;44775;51.564;5.460;2023-08-08T06:46:23;14.45;;;7.13;;
58472;SDS011;44775;51.564;5.460;2023-08-08T06:48:49;17.42;;;7.15;;
58472;SDS011;44775;51.564;5.460;2023-08-08T06:51:15;13.50;;;7.03;;
58472;SDS011;44775;51.564;5.460;2023-08-08T06:53:41;17.23;;;7.68;;
58472;SDS011;44775;51.564;5.460;2023-08-08T06:56:06;16.38;;;7.05;;
58472;SDS011;44775;51.564;5.460;2023-08-08T06:58:31;15.63;;;6.47;;
58472;SDS011;44775;51.564;5.460;2023-08-08T07:00:57;14.73;;;6.47;;
58472;SDS011;44775;51.564;5.460;2023-08-08T07:03:22;14.52;;;6.40;;
58472;SDS011;44775;51.564;5.460;2023-08-08T07:05:47;13.40;;;6.05;;
58472;SDS011;44775;51.564;5.460;2023-08-08T07:08:16;14.27;;;5.68;;
58472;SDS011;44775;51.564;5.460;2023-08-08T07:10:42;14.40;;;5.90;;
58472;SDS011;44775;51.564;5.460;2023-08-08T07:13:08;13.27;;;5.97;;
58472;SDS011;44775;51.564;5.460;2023-08-08T07:15:33;11.00;;;5.68;;
58472;SDS011;44775;51.564;5.460;2023-08-08T07:17:59;11.75;;;5.68;;
58472;SDS011;44775;51.564;5.460;2023-08-08T07:20:25;14.10;;;5.07;;
58472;SDS011;44775;51.564;5.460;2023-08-08T07:22:50;10.82;;;4.85;;
58472;SDS011;44775;51.564;5.460;2023-08-08T07:25:15;11.23;;;4.53;;
58472;SDS011;44775;51.564;5.460;2023-08-08T07:27:41;9.43;;;4.22;;
58472;SDS011;44775;51.564;5.460;2023-08-08T07:30:06;10.57;;;4.10;;
58472;SDS011;44775;51.564;5.460;2023-08-08T07:32:32;7.10;;;3.10;;
58472;SDS011;44775;51.564;5.460;2023-08-08T07:34:58;8.73;;;3.90;;
58472;SDS011;44775;51.564;5.460;2023-08-08T07:37:26;11.13;;;4.30;;
58472;SDS011;44775;51.564;5.460;2023-08-08T07:39:51;13.20;;;4.53;;
58472;SDS011;44775;51.564;5.460;2023-08-08T07:42:17;10.48;;;4.40;;
58472;SDS011;44775;51.564;5.460;2023-08-08T07:44:42;12.23;;;3.90;;
58472;SDS011;44775;51.564;5.460;2023-08-08T07:47:07;9.82;;;4.05;;
58472;SDS011;44775;51.564;5.460;2023-08-08T07:49:33;9.43;;;3.97;;
58472;SDS011;44775;51.564;5.460;2023-08-08T07:51:58;10.20;;;3.83;;
58472;SDS011;44775;51.564;5.460;2023-08-08T07:54:23;8.60;;;3.47;;
58472;SDS011;44775;51.564;5.460;2023-08-08T07:56:48;7.10;;;3.47;;
58472;SDS011;44775;51.564;5.460;2023-08-08T07:59:14;7.53;;;3.10;;
58472;SDS011;44775;51.564;5.460;2023-08-08T08:01:39;7.63;;;3.40;;
58472;SDS011;44775;51.564;5.460;2023-08-08T08:04:04;10.10;;;2.92;;
58472;SDS011;44775;51.564;5.460;2023-08-08T08:06:30;5.03;;;2.53;;
58472;SDS011;44775;51.564;5.460;2023-08-08T08:08:56;6.80;;;2.50;;
58472;SDS011;44775;51.564;5.460;2023-08-08T08:11:21;7.22;;;2.28;;
58472;SDS011;44775;51.564;5.460;2023-08-08T08:13:46;5.43;;;2.33;;
58472;SDS011;44775;51.564;5.460;2023-08-08T08:16:12;6.80;;;2.60;;
58472;SDS011;44775;51.564;5.460;2023-08-08T08:18:37;4.50;;;2.05;;
58472;SDS011;44775;51.564;5.460;2023-08-08T08:21:02;8.30;;;2.55;;
58472;SDS011;44775;51.564;5.460;2023-08-08T08:23:28;9.57;;;2.78;;
58472;SDS011;44775;51.564;5.460;2023-08-08T08:25:53;9.65;;;2.90;;
58472;SDS011;44775;51.564;5.460;2023-08-08T08:28:18;6.68;;;2.85;;
58472;SDS011;44775;51.564;5.460;2023-08-08T08:30:44;7.30;;;2.75;;
58472;SDS011;44775;51.564;5.460;2023-08-08T08:33:09;5.00;;;2.17;;
58472;SDS011;44775;51.564;5.460;2023-08-08T08:35:35;6.57;;;2.35;;
58472;SDS011;44775;51.564;5.460;2023-08-08T08:38:01;5.60;;;2.72;;
58472;SDS011;44775;51.564;5.460;2023-08-08T08:40:27;6.95;;;2.80;;
58472;SDS011;44775;51.564;5.460;2023-08-08T08:42:53;6.95;;;2.40;;
58472;SDS011;44775;51.564;5.460;2023-08-08T08:45:22;8.18;;;2.90;;
58472;SDS011;44775;51.564;5.460;2023-08-08T08:47:48;8.10;;;2.33;;
58472;SDS011;44775;51.564;5.460;2023-08-08T08:50:15;11.10;;;2.92;;
58472;SDS011;44775;51.564;5.460;2023-08-08T08:52:42;7.30;;;2.60;;
58472;SDS011;44775;51.564;5.460;2023-08-08T08:55:07;6.28;;;2.97;;
58472;SDS011;44775;51.564;5.460;2023-08-08T08:57:33;8.00;;;2.85;;
58472;SDS011;44775;51.564;5.460;2023-08-08T09:00:00;8.25;;;2.80;;
58472;SDS011;44775;51.564;5.460;2023-08-08T09:02:26;4.93;;;2.53;;
58472;SDS011;44775;51.564;5.460;2023-08-08T09:04:51;6.00;;;2.90;;
58472;SDS011;44775;51.564;5.460;2023-08-08T09:07:17;8.27;;;3.05;;
58472;SDS011;44775;51.564;5.460;2023-08-08T09:09:45;5.35;;;2.50;;
58472;SDS011;44775;51.564;5.460;2023-08-08T09:12:11;7.00;;;2.53;;
58472;SDS011;44775;51.564;5.460;2023-08-08T09:14:39;6.00;;;2.40;;
58472;SDS011;44775;51.564;5.460;2023-08-08T09:19:35;5.35;;;2.50;;
58472;SDS011;44775;51.564;5.460;2023-08-08T09:22:01;7.78;;;2.45;;
58472;SDS011;44775;51.564;5.460;2023-08-08T09:24:26;5.63;;;1.92;;
58472;SDS011;44775;51.564;5.460;2023-08-08T09:26:52;6.13;;;2.78;;
58472;SDS011;44775;51.564;5.460;2023-08-08T09:29:17;6.90;;;2.58;;
58472;SDS011;44775;51.564;5.460;2023-08-08T09:31:42;8.63;;;2.70;;
58472;SDS011;44775;51.564;5.460;2023-08-08T09:34:08;5.68;;;2.30;;
58472;SDS011;44775;51.564;5.460;2023-08-08T09:36:33;6.07;;;2.70;;
58472;SDS011;44775;51.564;5.460;2023-08-08T09:39:00;5.88;;;2.63;;
58472;SDS011;44775;51.564;5.460;2023-08-08T09:41:25;5.47;;;2.10;;
58472;SDS011;44775;51.564;5.460;2023-08-08T09:43:51;8.45;;;2.78;;
58472;SDS011;44775;51.564;5.460;2023-08-08T09:46:18;9.18;;;2.60;;
58472;SDS011;44775;51.564;5.460;2023-08-08T09:48:45;5.97;;;2.42;;
58472;SDS011;44775;51.564;5.460;2023-08-08T09:51:11;5.80;;;2.42;;
58472;SDS011;44775;51.564;5.460;2023-08-08T09:53:37;5.65;;;2.40;;
58472;SDS011;44775;51.564;5.460;2023-08-08T09:56:04;8.20;;;2.72;;
58472;SDS011;44775;51.564;5.460;2023-08-08T09:58:31;5.47;;;2.30;;
58472;SDS011;44775;51.564;5.460;2023-08-08T10:00:56;5.55;;;2.10;;
58472;SDS011;44775;51.564;5.460;2023-08-08T10:03:22;5.82;;;2.17;;
58472;SDS011;44775;51.564;5.460;2023-08-08T10:05:48;5.00;;;2.00;;
58472;SDS011;44775;51.564;5.460;2023-08-08T10:08:14;3.33;;;1.70;;
58472;SDS011;44775;51.564;5.460;2023-08-08T10:10:40;4.68;;;2.10;;
58472;SDS011;44775;51.564;5.460;2023-08-08T10:13:08;3.63;;;1.80;;
58472;SDS011;44775;51.564;5.460;2023-08-08T10:15:38;4.25;;;1.58;;
58472;SDS011;44775;51.564;5.460;2023-08-08T10:18:05;5.82;;;1.73;;
58472;SDS011;44775;51.564;5.460;2023-08-08T10:20:31;5.32;;;1.70;;
58472;SDS011;44775;51.564;5.460;2023-08-08T10:23:01;4.60;;;1.50;;
58472;SDS011;44775;51.564;5.460;2023-08-08T10:25:28;3.20;;;1.42;;
58472;SDS011;44775;51.564;5.460;2023-08-08T10:30:42;3.88;;;1.40;;
58472;SDS011;44775;51.564;5.460;2023-08-08T10:33:21;5.25;;;1.60;;
58472;SDS011;44775;51.564;5.460;2023-08-08T10:36:01;2.42;;;1.40;;
58472;SDS011;44775;51.564;5.460;2023-08-08T10:38:45;3.03;;;1.30;;
58472;SDS011;44775;51.564;5.460;2023-08-08T10:41:18;2.60;;;1.48;;
58472;SDS011;44775;51.564;5.460;2023-08-08T10:46:24;5.63;;;2.05;;
58472;SDS011;44775;51.564;5.460;2023-08-08T10:48:58;3.60;;;1.90;;
58472;SDS011;44775;51.564;5.460;2023-08-08T10:54:11;4.13;;;1.65;;
58472;SDS011;44775;51.564;5.460;2023-08-08T10:56:39;4.88;;;2.05;;
58472;SDS011;44775;51.564;5.460;2023-08-08T10:59:15;5.28;;;2.25;;
58472;SDS011;44775;51.564;5.460;2023-08-08T11:01:44;5.80;;;2.25;;
58472;SDS011;44775;51.564;5.460;2023-08-08T11:04:12;4.82;;;2.00;;
58472;SDS011;44775;51.564;5.460;2023-08-08T11:06:38;6.43;;;2.05;;
58472;SDS011;44775;51.564;5.460;2023-08-08T11:09:07;5.10;;;2.33;;
58472;SDS011;44775;51.564;5.460;2023-08-08T11:11:37;5.05;;;2.38;;
58472;SDS011;44775;51.564;5.460;2023-08-08T11:14:14;6.85;;;2.28;;
58472;SDS011;44775;51.564;5.460;2023-08-08T11:16:40;6.13;;;2.50;;
58472;SDS011;44775;51.564;5.460;2023-08-08T11:19:06;3.80;;;1.85;;
58472;SDS011;44775;51.564;5.460;2023-08-08T11:21:40;7.45;;;2.17;;
58472;SDS011;44775;51.564;5.460;2023-08-08T11:24:07;6.28;;;2.78;;
58472;SDS011;44775;51.564;5.460;2023-08-08T11:26:33;6.05;;;2.20;;
58472;SDS011;44775;51.564;5.460;2023-08-08T11:28:59;3.67;;;2.10;;
58472;SDS011;44775;51.564;5.460;2023-08-08T11:31:26;4.15;;;1.75;;
58472;SDS011;44775;51.564;5.460;2023-08-08T11:33:52;4.55;;;1.83;;
58472;SDS011;44775;51.564;5.460;2023-08-08T11:36:19;3.65;;;1.60;;
58472;SDS011;44775;51.564;5.460;2023-08-08T11:38:45;5.68;;;1.70;;
58472;SDS011;44775;51.564;5.460;2023-08-08T11:41:12;6.43;;;1.48;;
58472;SDS011;44775;51.564;5.460;2023-08-08T11:43:38;4.72;;;1.80;;
58472;SDS011;44775;51.564;5.460;2023-08-08T11:46:12;3.65;;;1.50;;
58472;SDS011;44775;51.564;5.460;2023-08-08T11:48:38;5.43;;;1.90;;
58472;SDS011;44775;51.564;5.460;2023-08-08T11:51:04;5.25;;;1.85;;
58472;SDS011;44775;51.564;5.460;2023-08-08T11:53:29;5.03;;;1.90;;
58472;SDS011;44775;51.564;5.460;2023-08-08T11:55:55;5.95;;;1.90;;
58472;SDS011;44775;51.564;5.460;2023-08-08T11:58:23;4.97;;;1.67;;
58472;SDS011;44775;51.564;5.460;2023-08-08T12:00:50;4.32;;;1.70;;
58472;SDS011;44775;51.564;5.460;2023-08-08T12:03:18;1.85;;;1.20;;
58472;SDS011;44775;51.564;5.460;2023-08-08T12:05:47;3.20;;;1.45;;
58472;SDS011;44775;51.564;5.460;2023-08-08T12:08:13;4.65;;;1.40;;
58472;SDS011;44775;51.564;5.460;2023-08-08T12:10:46;3.60;;;1.20;;
58472;SDS011;44775;51.564;5.460;2023-08-08T12:13:13;2.58;;;1.20;;
58472;SDS011;44775;51.564;5.460;2023-08-08T12:15:38;6.00;;;1.20;;
58472;SDS011;44775;51.564;5.460;2023-08-08T12:18:04;2.88;;;1.08;;
58472;SDS011;44775;51.564;5.460;2023-08-08T12:20:29;2.47;;;1.00;;
58472;SDS011;44775;51.564;5.460;2023-08-08T12:22:56;2.53;;;0.98;;
58472;SDS011;44775;51.564;5.460;2023-08-08T12:25:25;3.72;;;1.10;;
58472;SDS011;44775;51.564;5.460;2023-08-08T12:27:51;1.45;;;0.85;;
58472;SDS011;44775;51.564;5.460;2023-08-08T12:30:16;1.40;;;0.90;;
58472;SDS011;44775;51.564;5.460;2023-08-08T12:32:41;3.20;;;0.90;;
58472;SDS011;44775;51.564;5.460;2023-08-08T12:35:07;1.95;;;0.80;;
58472;SDS011;44775;51.564;5.460;2023-08-08T12:37:33;1.70;;;0.90;;
58472;SDS011;44775;51.564;5.460;2023-08-08T12:39:58;1.63;;;0.70;;
58472;SDS011;44775;51.564;5.460;2023-08-08T12:42:23;1.63;;;0.70;;
58472;SDS011;44775;51.564;5.460;2023-08-08T12:44:49;2.88;;;0.70;;
58472;SDS011;44775;51.564;5.460;2023-08-08T12:47:17;1.27;;;0.70;;
58472;SDS011;44775;51.564;5.460;2023-08-08T12:49:43;2.00;;;0.70;;
58472;SDS011;44775;51.564;5.460;2023-08-08T12:52:08;2.42;;;0.60;;
58472;SDS011;44775;51.564;5.460;2023-08-08T12:54:34;1.35;;;0.70;;
58472;SDS011;44775;51.564;5.460;2023-08-08T12:57:01;3.10;;;0.60;;
58472;SDS011;44775;51.564;5.460;2023-08-08T12:59:26;1.10;;;0.70;;
58472;SDS011;44775;51.564;5.460;2023-08-08T13:01:51;1.40;;;0.70;;
58472;SDS011;44775;51.564;5.460;2023-08-08T13:04:17;1.58;;;0.80;;
58472;SDS011;44775;51.564;5.460;2023-08-08T13:06:42;2.08;;;0.80;;
58472;SDS011;44775;51.564;5.460;2023-08-08T13:09:07;1.40;;;0.50;;
58472;SDS011;44775;51.564;5.460;2023-08-08T13:11:33;1.65;;;0.70;;
58472;SDS011;44775;51.564;5.460;2023-08-08T13:13:58;3.35;;;0.70;;
58472;SDS011;44775;51.564;5.460;2023-08-08T13:16:23;1.00;;;0.60;;
58472;SDS011;44775;51.564;5.460;2023-08-08T13:18:49;1.77;;;0.70;;
58472;SDS011;44775;51.564;5.460;2023-08-08T13:21:14;2.97;;;0.80;;
58472;SDS011;44775;51.564;5.460;2023-08-08T13:23:40;3.40;;;0.80;;
58472;SDS011;44775;51.564;5.460;2023-08-08T13:26:06;1.45;;;0.70;;
58472;SDS011;44775;51.564;5.460;2023-08-08T13:28:32;1.20;;;0.70;;
58472;SDS011;44775;51.564;5.460;2023-08-08T13:30:57;2.95;;;0.80;;
58472;SDS011;44775;51.564;5.460;2023-08-08T13:33:23;1.30;;;0.80;;
58472;SDS011;44775;51.564;5.460;2023-08-08T13:35:49;1.42;;;0.73;;
58472;SDS011;44775;51.564;5.460;2023-08-08T13:38:14;1.52;;;0.70;;
58472;SDS011;44775;51.564;5.460;2023-08-08T13:40:40;1.20;;;0.80;;
58472;SDS011;44775;51.564;5.460;2023-08-08T13:43:06;2.08;;;0.93;;
58472;SDS011;44775;51.564;5.460;2023-08-08T13:45:31;2.65;;;0.90;;
58472;SDS011;44775;51.564;5.460;2023-08-08T13:47:57;2.53;;;0.88;;
58472;SDS011;44775;51.564;5.460;2023-08-08T13:50:22;2.42;;;0.80;;
58472;SDS011;44775;51.564;5.460;2023-08-08T13:52:47;2.13;;;0.88;;
58472;SDS011;44775;51.564;5.460;2023-08-08T13:55:13;2.90;;;1.00;;
58472;SDS011;44775;51.564;5.460;2023-08-08T13:57:38;2.65;;;0.80;;
58472;SDS011;44775;51.564;5.460;2023-08-08T14:00:04;4.68;;;0.90;;
58472;SDS011;44775;51.564;5.460;2023-08-08T14:02:31;2.03;;;0.90;;
58472;SDS011;44775;51.564;5.460;2023-08-08T14:04:57;2.58;;;0.90;;
58472;SDS011;44775;51.564;5.460;2023-08-08T14:07:22;2.08;;;1.02;;
58472;SDS011;44775;51.564;5.460;2023-08-08T14:09:47;2.33;;;0.90;;
58472;SDS011;44775;51.564;5.460;2023-08-08T14:12:13;3.22;;;0.93;;
58472;SDS011;44775;51.564;5.460;2023-08-08T14:14:38;2.60;;;1.05;;
58472;SDS011;44775;51.564;5.460;2023-08-08T14:17:03;1.77;;;0.70;;
58472;SDS011;44775;51.564;5.460;2023-08-08T14:19:29;2.17;;;0.90;;
58472;SDS011;44775;51.564;5.460;2023-08-08T14:21:54;1.02;;;0.73;;
58472;SDS011;44775;51.564;5.460;2023-08-08T14:24:20;1.65;;;0.75;;
58472;SDS011;44775;51.564;5.460;2023-08-08T14:26:45;2.33;;;0.82;;
58472;SDS011;44775;51.564;5.460;2023-08-08T14:29:10;3.83;;;1.00;;
58472;SDS011;44775;51.564;5.460;2023-08-08T14:31:36;2.15;;;0.90;;
58472;SDS011;44775;51.564;5.460;2023-08-08T14:34:01;1.33;;;0.70;;
58472;SDS011;44775;51.564;5.460;2023-08-08T14:36:28;2.00;;;0.75;;
58472;SDS011;44775;51.564;5.460;2023-08-08T14:38:53;0.90;;;0.60;;
58472;SDS011;44775;51.564;5.460;2023-08-08T14:41:18;2.72;;;0.95;;
58472;SDS011;44775;51.564;5.460;2023-08-08T14:43:44;2.15;;;0.82;;
58472;SDS011;44775;51.564;5.460;2023-08-08T14:46:09;1.85;;;0.80;;
58472;SDS011;44775;51.564;5.460;2023-08-08T14:48:35;2.72;;;0.90;;
58472;SDS011;44775;51.564;5.460;2023-08-08T14:51:01;3.92;;;0.88;;
58472;SDS011;44775;51.564;5.460;2023-08-08T14:53:27;1.35;;;0.88;;